Time;durP1;ratioP1;P1;durP2;ratioP2;P2;SDS_P1;SDS_P2;PMS_P1;PMS_P2;Temp;Humidity;BMP_temperature;BMP_pressure;BME280_temperature;BME280_humidity;BME280_pressure;Samples;Min_cycle;Max_cycle;Signal;HPM_P1;HPM_P2
2022/11/03 00:01:42;;;;;;;6.77;6.07;;;9.80;99.90;;;;;;5094585;28;20448;-55
2022/11/03 00:04:13;;;;;;;9.43;6.20;;;9.80;99.90;;;;;;5093762;28;20479;-55
2022/11/03 00:06:42;;;;;;;11.70;6.10;;;9.80;99.90;;;;;;5095366;28;20849;-55
2022/11/03 00:09:10;;;;;;;9.43;6.43;;;9.80;99.90;;;;;;5094869;28;20816;-55
2022/11/03 00:11:39;;;;;;;8.13;5.83;;;9.80;99.90;;;;;;5094738;28;20454;-54
2022/11/03 00:14:09;;;;;;;9.80;5.67;;;9.80;99.90;;;;;;5094630;28;20451;-54
2022/11/03 00:16:37;;;;;;;9.33;6.23;;;9.70;99.90;;;;;;5094774;28;20485;-54
2022/11/03 00:19:04;;;;;;;9.60;5.50;;;9.70;99.90;;;;;;5094351;28;20459;-54
2022/11/03 00:21:32;;;;;;;11.37;6.87;;;9.60;99.90;;;;;;5094417;28;20444;-54
2022/11/03 00:24:01;;;;;;;9.07;6.07;;;9.50;99.90;;;;;;5094473;28;20479;-54
2022/11/03 00:26:30;;;;;;;10.73;5.90;;;9.60;99.90;;;;;;5094274;28;20458;-53
2022/11/03 00:28:59;;;;;;;9.47;6.80;;;9.60;99.90;;;;;;5094535;28;20470;-53
2022/11/03 00:31:29;;;;;;;9.77;6.10;;;9.60;99.90;;;;;;5094215;28;20863;-53
2022/11/03 00:33:57;;;;;;;12.07;6.57;;;9.60;99.90;;;;;;5094365;28;20444;-53
2022/11/03 00:36:26;;;;;;;7.60;5.40;;;9.70;99.90;;;;;;5094287;28;20486;-55
2022/11/03 00:38:54;;;;;;;10.00;6.33;;;9.60;99.90;;;;;;5094452;28;20455;-55
2022/11/03 00:41:22;;;;;;;16.00;6.83;;;9.60;99.90;;;;;;5094272;28;20469;-53
2022/11/03 00:43:50;;;;;;;11.90;6.47;;;9.60;99.90;;;;;;5093834;28;20860;-55
2022/11/03 00:46:19;;;;;;;8.77;6.17;;;9.70;99.90;;;;;;5093704;28;20566;-55
2022/11/03 00:48:48;;;;;;;12.80;5.60;;;9.70;99.90;;;;;;5093829;28;20993;-53
2022/11/03 00:51:16;;;;;;;9.47;6.50;;;9.70;99.90;;;;;;5093812;28;20951;-55
2022/11/03 00:53:48;;;;;;;8.30;5.73;;;9.60;99.90;;;;;;5093789;28;20967;-53
2022/11/03 00:56:17;;;;;;;10.53;6.67;;;9.60;99.90;;;;;;5094091;28;20467;-55
2022/11/03 00:58:45;;;;;;;11.70;7.00;;;9.60;99.90;;;;;;5093619;28;20532;-55
2022/11/03 01:01:14;;;;;;;15.17;7.93;;;9.50;99.90;;;;;;5093596;28;20538;-55
2022/11/03 01:06:48;;;;;;;13.47;7.00;;;9.40;99.90;;;;;;5093896;28;20901;-55
2022/11/03 01:06:52;;;;;;;8.77;6.77;;;9.50;99.90;;;;;;5093648;28;20427;-53
2022/11/03 01:09:20;;;;;;;6.90;6.30;;;9.50;99.90;;;;;;5093890;28;20459;-53
2022/11/03 01:11:54;;;;;;;9.10;5.83;;;9.60;99.90;;;;;;5093849;28;20439;-53
2022/11/03 01:14:21;;;;;;;15.53;6.90;;;9.50;99.90;;;;;;5093316;28;20828;-55
2022/11/03 01:16:48;;;;;;;9.60;6.40;;;9.40;99.90;;;;;;5093770;28;20444;-54
2022/11/03 01:19:15;;;;;;;10.40;7.43;;;9.30;99.90;;;;;;5093494;28;20451;-54
2022/11/03 01:21:44;;;;;;;9.43;6.17;;;9.20;99.90;;;;;;5093318;28;20447;-53
2022/11/03 01:24:11;;;;;;;7.47;5.47;;;9.30;99.90;;;;;;5093463;28;20479;-54
2022/11/03 01:26:38;;;;;;;11.10;6.80;;;9.30;99.90;;;;;;5093643;28;20443;-53
2022/11/03 01:29:05;;;;;;;9.77;7.00;;;9.20;99.90;;;;;;5093236;28;20444;-55
2022/11/03 01:31:32;;;;;;;9.00;6.00;;;9.20;99.90;;;;;;5093478;28;20443;-55
2022/11/03 01:33:59;;;;;;;14.60;6.73;;;9.30;99.90;;;;;;5093570;28;20443;-55
2022/11/03 01:36:27;;;;;;;11.43;6.07;;;9.40;99.90;;;;;;5093113;28;20937;-55
2022/11/03 01:38:56;;;;;;;7.07;6.17;;;9.40;99.90;;;;;;5093538;28;20479;-55
2022/11/03 01:41:25;;;;;;;10.10;8.30;;;9.40;99.90;;;;;;5093255;28;20530;-55
2022/11/03 01:44:26;;;;;;;11.30;6.67;;;9.40;99.90;;;;;;5093250;28;20984;-55
2022/11/03 01:46:56;;;;;;;7.80;7.00;;;9.40;99.90;;;;;;5093076;28;20475;-54
2022/11/03 01:49:29;;;;;;;10.50;6.60;;;9.40;99.90;;;;;;5093183;28;20447;-55
2022/11/03 01:52:00;;;;;;;9.63;6.53;;;9.50;99.90;;;;;;5093421;28;20428;-55
2022/11/03 01:54:30;;;;;;;9.17;7.00;;;9.40;99.90;;;;;;5093000;28;20973;-55
2022/11/03 01:56:59;;;;;;;12.20;7.67;;;9.40;99.90;;;;;;5093489;28;20435;-55
2022/11/03 01:59:27;;;;;;;14.37;7.03;;;9.40;99.90;;;;;;5093466;28;20448;-55
2022/11/03 02:01:55;;;;;;;9.77;8.77;;;9.40;99.90;;;;;;5092927;28;20534;-55
2022/11/03 02:04:28;;;;;;;14.73;7.33;;;9.30;99.90;;;;;;5092801;28;20493;-54
2022/11/03 02:07:03;;;;;;;12.07;6.80;;;9.30;99.90;;;;;;5093036;28;20863;-55
2022/11/03 02:09:31;;;;;;;10.13;7.40;;;9.30;99.90;;;;;;5093420;28;20841;-55
2022/11/03 02:12:08;;;;;;;11.40;7.10;;;9.20;99.90;;;;;;5093202;28;20451;-55
2022/11/03 02:14:42;;;;;;;8.73;7.27;;;9.10;99.90;;;;;;5092732;28;20473;-55
2022/11/03 02:17:11;;;;;;;14.17;7.10;;;9.20;99.90;;;;;;5093228;28;20434;-54
2022/11/03 02:19:43;;;;;;;12.70;7.07;;;9.20;99.90;;;;;;5093318;28;20531;-55
2022/11/03 02:22:41;;;;;;;10.60;6.87;;;9.20;99.90;;;;;;5093252;28;20424;-55
2022/11/03 02:25:17;;;;;;;6.63;5.77;;;9.10;99.90;;;;;;5092760;28;20991;-55
2022/11/03 02:27:46;;;;;;;12.73;7.40;;;9.10;99.90;;;;;;5095170;28;20432;-54
2022/11/03 02:30:14;;;;;;;10.30;6.40;;;9.20;99.90;;;;;;5096458;28;20462;-55
2022/11/03 02:32:51;;;;;;;18.37;5.97;;;9.20;99.90;;;;;;5096561;28;20446;-55
2022/11/03 02:35:22;;;;;;;10.13;6.17;;;9.10;99.90;;;;;;5096532;28;20465;-55
2022/11/03 02:37:55;;;;;;;7.73;6.70;;;9.10;99.90;;;;;;5096608;28;20451;-54
2022/11/03 02:40:28;;;;;;;9.93;6.67;;;9.10;99.90;;;;;;5096674;28;20477;-54
2022/11/03 02:42:58;;;;;;;10.33;7.20;;;9.00;99.90;;;;;;5096302;28;20522;-54
2022/11/03 02:45:26;;;;;;;8.67;6.20;;;9.00;99.90;;;;;;5095860;28;20491;-54
2022/11/03 02:47:58;;;;;;;8.30;5.63;;;9.10;99.90;;;;;;5096099;28;20451;-55
2022/11/03 02:50:27;;;;;;;7.33;6.33;;;9.10;99.90;;;;;;5096464;28;20784;-55
2022/11/03 02:52:55;;;;;;;10.77;5.70;;;9.10;99.90;;;;;;5096009;28;20809;-54
2022/11/03 02:55:32;;;;;;;8.60;5.80;;;9.20;99.90;;;;;;5096344;28;20502;-55
2022/11/03 02:58:07;;;;;;;9.30;5.53;;;9.20;99.90;;;;;;5096345;28;20791;-55
2022/11/03 03:00:40;;;;;;;8.70;5.37;;;9.20;99.90;;;;;;5096366;28;20877;-55
2022/11/03 03:03:14;;;;;;;9.67;6.50;;;9.30;99.90;;;;;;5095819;28;20431;-55
2022/11/03 03:05:44;;;;;;;13.77;6.03;;;9.20;99.90;;;;;;5096104;28;20850;-54
2022/11/03 03:08:12;;;;;;;6.70;5.10;;;9.20;99.90;;;;;;5095909;28;20462;-55
2022/11/03 03:10:43;;;;;;;9.13;5.80;;;9.20;99.90;;;;;;5095977;28;20456;-55
2022/11/03 03:13:15;;;;;;;7.20;5.50;;;9.20;99.90;;;;;;5096402;28;20439;-55
2022/11/03 03:15:47;;;;;;;12.30;5.37;;;9.20;99.90;;;;;;5096064;28;20466;-54
2022/11/03 03:18:23;;;;;;;11.90;6.07;;;9.00;99.90;;;;;;5096051;28;20435;-54
2022/11/03 03:20:56;;;;;;;8.50;5.60;;;8.90;99.90;;;;;;5095983;28;20427;-55
2022/11/03 03:23:25;;;;;;;5.30;4.63;;;8.80;99.90;;;;;;5095839;28;20427;-55
2022/11/03 03:25:58;;;;;;;7.17;5.23;;;8.80;99.90;;;;;;5095463;28;20847;-54
2022/11/03 03:28:33;;;;;;;6.53;4.70;;;8.80;99.90;;;;;;5095570;28;20428;-54
2022/11/03 03:31:04;;;;;;;6.00;4.63;;;8.80;99.90;;;;;;5095719;28;20427;-55
2022/11/03 03:33:32;;;;;;;7.70;5.47;;;8.70;99.90;;;;;;5095687;28;20428;-55
2022/11/03 03:36:03;;;;;;;8.03;5.60;;;8.70;99.90;;;;;;5095526;28;20464;-54
2022/11/03 03:38:35;;;;;;;6.23;5.33;;;8.70;99.90;;;;;;5094277;28;20461;-54
2022/11/03 03:41:03;;;;;;;7.87;5.13;;;8.70;99.90;;;;;;5095514;28;20519;-55
2022/11/03 03:43:34;;;;;;;8.67;5.30;;;8.70;99.90;;;;;;5095289;28;20929;-54
2022/11/03 03:46:07;;;;;;;9.63;5.23;;;8.80;99.90;;;;;;5095018;28;20490;-54
2022/11/03 03:48:34;;;;;;;8.20;4.90;;;8.90;99.90;;;;;;5095125;28;20450;-55
2022/11/03 03:51:02;;;;;;;8.97;4.93;;;8.80;99.90;;;;;;5094902;28;20486;-55
2022/11/03 03:53:30;;;;;;;9.33;5.23;;;8.80;99.90;;;;;;5095184;28;20444;-55
2022/11/03 03:55:59;;;;;;;6.13;5.13;;;8.80;99.90;;;;;;5095156;28;20554;-55
2022/11/03 03:58:26;;;;;;;8.47;4.87;;;8.80;99.90;;;;;;5095058;28;20449;-55
2022/11/03 04:00:54;;;;;;;8.77;5.47;;;8.80;99.90;;;;;;5095028;28;20531;-54
2022/11/03 04:03:23;;;;;;;6.50;5.00;;;8.90;99.90;;;;;;5095073;28;20447;-55
2022/11/03 04:05:51;;;;;;;11.47;6.17;;;8.90;99.90;;;;;;5094437;28;20489;-55
2022/11/03 04:08:18;;;;;;;7.30;5.10;;;8.90;99.90;;;;;;5094769;28;20929;-55
2022/11/03 04:22:15;;;;;;;12.67;5.53;;;8.80;99.90;;;;;;5094718;28;21012;-54
2022/11/03 04:24:46;;;;;;;10.53;6.63;;;8.40;99.90;;;;;;5051858;28;20481;-54
2022/11/03 04:27:31;;;;;;;7.70;6.90;;;8.50;99.90;;;;;;5084281;28;20455;-55
2022/11/03 04:30:02;;;;;;;7.30;5.60;;;8.60;99.90;;;;;;5094636;28;20778;-54
2022/11/03 04:32:30;;;;;;;8.13;6.07;;;8.30;99.90;;;;;;5094153;28;20436;-54
2022/11/03 04:34:59;;;;;;;7.93;6.67;;;8.30;99.90;;;;;;5094309;28;20517;-55
2022/11/03 04:37:28;;;;;;;9.07;6.77;;;8.30;99.90;;;;;;5094239;28;20530;-55
2022/11/03 04:40:00;;;;;;;7.90;5.67;;;8.40;99.90;;;;;;5094588;28;20493;-55
2022/11/03 04:42:30;;;;;;;7.70;5.80;;;8.60;99.90;;;;;;5094274;28;20486;-55
2022/11/03 04:44:59;;;;;;;10.53;5.77;;;8.60;99.90;;;;;;5093714;28;20494;-55
2022/11/03 04:47:27;;;;;;;11.10;7.30;;;8.60;99.90;;;;;;5094330;28;20441;-54
2022/11/03 04:49:56;;;;;;;6.47;5.83;;;8.70;99.90;;;;;;5093813;28;20469;-56
2022/11/03 04:52:23;;;;;;;9.83;7.50;;;8.50;99.90;;;;;;5094018;28;20447;-55
2022/11/03 04:54:53;;;;;;;9.30;6.70;;;8.60;99.90;;;;;;5093678;28;20466;-54
2022/11/03 04:57:20;;;;;;;9.17;5.80;;;8.60;99.90;;;;;;5094034;28;20526;-55
2022/11/03 04:59:50;;;;;;;7.50;5.30;;;8.50;99.90;;;;;;5093897;28;20494;-55
2022/11/03 05:02:21;;;;;;;7.67;6.30;;;8.50;99.90;;;;;;5093590;28;20448;-55
2022/11/03 05:04:48;;;;;;;8.17;5.80;;;8.50;99.90;;;;;;5093538;28;20574;-55
2022/11/03 05:07:32;;;;;;;6.53;5.90;;;8.50;99.90;;;;;;5093560;28;20479;-54
2022/11/03 05:10:00;;;;;;;8.60;6.27;;;8.40;99.90;;;;;;5093850;28;20450;-55
2022/11/03 05:12:28;;;;;;;13.80;7.57;;;8.40;99.90;;;;;;5093443;28;20926;-55
2022/11/03 05:14:55;;;;;;;13.17;6.90;;;8.40;99.90;;;;;;5093364;28;20999;-54
2022/11/03 05:17:25;;;;;;;12.47;7.43;;;8.40;99.90;;;;;;5093701;28;20929;-54
2022/11/03 05:19:55;;;;;;;6.43;5.83;;;8.40;99.90;;;;;;5093375;28;20534;-55
2022/11/03 05:22:26;;;;;;;7.97;6.77;;;8.40;99.90;;;;;;5093359;28;20527;-55
2022/11/03 05:25:10;;;;;;;8.63;6.27;;;8.50;99.90;;;;;;5093676;28;20589;-54
2022/11/03 05:27:37;;;;;;;9.17;6.33;;;8.40;99.90;;;;;;5093999;28;20503;-54
2022/11/03 05:30:07;;;;;;;9.60;6.30;;;8.40;99.90;;;;;;5093509;28;20448;-55
2022/11/03 05:32:34;;;;;;;11.40;7.17;;;8.30;99.90;;;;;;5093140;28;20487;-55
2022/11/03 05:35:03;;;;;;;7.90;6.27;;;8.30;99.90;;;;;;5093201;28;20466;-55
2022/11/03 05:37:32;;;;;;;13.00;6.13;;;8.30;99.90;;;;;;5093029;28;20447;-55
2022/11/03 05:40:03;;;;;;;8.10;6.30;;;8.30;99.90;;;;;;5093483;28;20434;-54
2022/11/03 05:42:36;;;;;;;9.67;6.73;;;8.30;99.90;;;;;;5093469;28;20496;-54
2022/11/03 05:45:09;;;;;;;8.93;6.50;;;8.20;99.90;;;;;;5092665;28;20476;-55
2022/11/03 05:47:38;;;;;;;7.70;6.77;;;8.20;99.90;;;;;;5093380;28;20428;-55
2022/11/03 05:50:16;;;;;;;8.50;6.13;;;8.30;99.90;;;;;;5093014;28;20493;-54
2022/11/03 05:52:46;;;;;;;9.10;6.00;;;8.20;99.90;;;;;;5093110;28;20428;-55
2022/11/03 05:55:26;;;;;;;11.80;6.47;;;8.20;99.90;;;;;;5093350;28;20551;-55
2022/11/03 05:57:55;;;;;;;14.03;6.73;;;8.10;99.90;;;;;;5093417;28;20837;-54
2022/11/03 06:00:31;;;;;;;8.47;6.53;;;8.20;99.90;;;;;;5093264;28;20447;-54
2022/11/03 06:02:59;;;;;;;10.13;6.90;;;8.30;99.90;;;;;;5095915;28;20431;-54
2022/11/03 06:05:27;;;;;;;7.60;6.13;;;8.40;99.90;;;;;;5097149;28;20487;-55
2022/11/03 06:08:00;;;;;;;12.60;6.87;;;8.40;99.90;;;;;;5097169;28;20950;-55
2022/11/03 06:10:29;;;;;;;7.80;6.93;;;8.30;99.90;;;;;;5097066;28;20428;-54
2022/11/03 06:13:01;;;;;;;16.03;7.23;;;8.40;99.90;;;;;;5096983;28;20448;-54
2022/11/03 06:15:31;;;;;;;8.20;6.57;;;8.50;99.90;;;;;;5096755;28;20855;-55
2022/11/03 06:18:00;;;;;;;7.53;6.40;;;8.50;99.90;;;;;;5097185;28;20454;-55
2022/11/03 06:20:28;;;;;;;10.47;6.63;;;8.40;99.90;;;;;;5096939;28;20541;-54
2022/11/03 06:22:57;;;;;;;10.73;6.40;;;8.30;99.90;;;;;;5096686;28;20806;-55
2022/11/03 06:25:29;;;;;;;12.77;6.80;;;8.20;99.90;;;;;;5096608;28;20574;-55
2022/11/03 06:28:00;;;;;;;8.43;7.40;;;8.20;99.90;;;;;;5096699;28;20511;-55
2022/11/03 06:30:29;;;;;;;8.80;7.17;;;8.20;99.90;;;;;;5096682;28;20431;-54
2022/11/03 06:33:00;;;;;;;10.93;7.00;;;8.20;99.90;;;;;;5096462;28;20538;-55
2022/11/03 06:35:28;;;;;;;9.70;7.97;;;8.20;99.90;;;;;;5096721;28;20459;-55
2022/11/03 06:37:59;;;;;;;8.73;6.73;;;8.30;99.90;;;;;;5096230;28;20980;-55
2022/11/03 06:40:37;;;;;;;12.43;6.60;;;8.30;99.90;;;;;;5096296;28;20438;-55
2022/11/03 06:43:19;;;;;;;10.93;6.87;;;8.40;99.90;;;;;;5096087;28;20447;-55
2022/11/03 06:45:52;;;;;;;13.37;7.70;;;8.40;99.90;;;;;;5095512;28;20492;-55
2022/11/03 06:48:27;;;;;;;10.77;7.90;;;8.50;99.90;;;;;;5096428;28;20455;-55
2022/11/03 06:50:55;;;;;;;14.90;6.80;;;8.60;99.90;;;;;;5095898;28;20438;-55
2022/11/03 06:53:27;;;;;;;11.33;7.03;;;8.60;99.90;;;;;;5096052;28;20494;-55
2022/11/03 06:55:54;;;;;;;9.73;6.70;;;8.70;99.90;;;;;;5095551;28;20535;-55
2022/11/03 06:58:27;;;;;;;12.73;7.27;;;8.70;99.90;;;;;;5096177;28;21043;-55
2022/11/03 07:00:57;;;;;;;12.57;7.83;;;8.80;99.90;;;;;;5096124;28;20494;-55
2022/11/03 07:03:29;;;;;;;14.37;7.77;;;8.80;99.90;;;;;;5095476;28;20579;-54
2022/11/03 07:05:58;;;;;;;8.63;7.00;;;8.90;99.90;;;;;;5095521;28;20479;-55
2022/11/03 07:08:30;;;;;;;11.33;6.67;;;8.90;99.90;;;;;;5095973;28;20505;-55
2022/11/03 07:11:01;;;;;;;7.60;6.63;;;9.00;99.90;;;;;;5095434;28;20765;-55
2022/11/03 07:13:30;;;;;;;11.50;8.00;;;9.00;99.90;;;;;;5095559;28;20424;-55
2022/11/03 07:15:57;;;;;;;7.43;6.47;;;9.20;99.90;;;;;;5095231;28;20563;-55
2022/11/03 07:18:27;;;;;;;15.17;7.23;;;9.20;99.90;;;;;;5095752;28;20534;-55
2022/11/03 07:20:56;;;;;;;9.73;6.67;;;9.30;99.90;;;;;;5095732;28;20432;-55
2022/11/03 07:23:29;;;;;;;8.87;7.33;;;9.40;99.90;;;;;;5094982;28;20447;-55
2022/11/03 07:26:00;;;;;;;12.50;7.53;;;9.40;99.90;;;;;;5095597;28;20479;-55
2022/11/03 07:28:32;;;;;;;11.70;7.63;;;9.40;99.90;;;;;;5095516;28;20450;-55
2022/11/03 07:31:01;;;;;;;9.03;6.20;;;9.50;99.90;;;;;;5095220;28;20436;-55
2022/11/03 07:33:31;;;;;;;11.43;7.10;;;9.50;99.90;;;;;;5095193;28;20443;-55
2022/11/03 07:36:00;;;;;;;9.70;8.33;;;9.60;99.90;;;;;;5095088;28;20463;-55
2022/11/03 07:38:29;;;;;;;12.13;8.07;;;9.60;99.90;;;;;;5095288;28;20456;-55
2022/11/03 07:40:59;;;;;;;15.87;8.63;;;9.70;99.90;;;;;;5095130;28;20449;-55
2022/11/03 07:43:31;;;;;;;12.23;8.13;;;9.70;99.90;;;;;;5094775;28;20805;-55
2022/11/03 07:46:00;;;;;;;14.13;7.33;;;9.70;99.90;;;;;;5093965;28;20575;-55
2022/11/03 07:48:33;;;;;;;13.10;7.67;;;9.80;99.90;;;;;;5094944;28;20535;-54
2022/11/03 07:51:06;;;;;;;11.80;8.10;;;10.00;99.90;;;;;;5097793;28;20479;-55
2022/11/03 07:53:41;;;;;;;15.70;8.20;;;10.00;99.90;;;;;;5096525;28;20905;-55
2022/11/03 07:56:18;;;;;;;11.80;7.97;;;10.00;99.90;;;;;;5091636;28;20546;-55
2022/11/03 07:58:45;;;;;;;11.60;8.77;;;10.10;99.90;;;;;;5093873;28;20454;-54
2022/11/03 08:01:24;;;;;;;10.23;6.40;;;10.10;99.90;;;;;;5099174;28;20491;-53
2022/11/03 08:03:53;;;;;;;9.73;7.17;;;10.20;99.90;;;;;;5089659;28;20916;-53
2022/11/03 08:06:20;;;;;;;8.87;6.50;;;10.30;99.90;;;;;;5086907;28;20479;-54
2022/11/03 08:08:48;;;;;;;9.73;5.30;;;10.40;99.90;;;;;;5091749;28;20809;-55
2022/11/03 08:11:17;;;;;;;8.10;6.00;;;10.30;99.90;;;;;;5090503;28;20539;-55
2022/11/03 08:13:44;;;;;;;8.40;6.10;;;10.50;99.90;;;;;;5089393;28;20463;-55
2022/11/03 08:16:11;;;;;;;8.70;5.43;;;10.50;99.90;;;;;;5092741;28;20483;-55
2022/11/03 08:18:39;;;;;;;6.23;4.83;;;10.50;99.90;;;;;;5092568;28;20502;-55
2022/11/03 08:21:06;;;;;;;10.67;5.83;;;10.60;99.90;;;;;;5085713;28;20463;-55
2022/11/03 08:23:33;;;;;;;6.87;4.93;;;10.80;99.90;;;;;;5089477;28;20556;-56
2022/11/03 08:26:02;;;;;;;5.37;4.83;;;10.70;99.90;;;;;;5095699;28;20571;-60
2022/11/03 08:28:34;;;;;;;8.67;4.87;;;11.90;99.90;;;;;;5091343;28;20511;-52
2022/11/03 08:31:03;;;;;;;4.90;4.20;;;14.70;99.90;;;;;;5081771;28;20460;-53
2022/11/03 08:33:31;;;;;;;5.53;3.80;;;15.70;99.90;;;;;;5085454;28;20858;-54
2022/11/03 08:35:59;;;;;;;7.63;4.20;;;;;;;;;;5080858;28;20475;-57
2022/11/03 08:38:26;;;;;;;7.00;4.37;;;18.40;99.90;;;;;;5084179;28;20479;-52
2022/11/03 08:40:54;;;;;;;6.17;3.30;;;;;;;;;;5088315;28;20979;-51
2022/11/03 08:43:22;;;;;;;4.47;3.77;;;18.90;99.90;;;;;;5085129;28;20455;-55
2022/11/03 08:45:52;;;;;;;14.43;4.27;;;19.30;99.90;;;;;;4963613;28;3580290;-54
2022/11/03 08:48:20;;;;;;;6.07;4.00;;;19.20;99.90;;;;;;5085165;28;20293;-54
2022/11/03 08:50:49;;;;;;;5.03;4.00;;;19.10;99.90;;;;;;5088363;28;20463;-55
2022/11/03 08:53:16;;;;;;;8.57;4.87;;;19.30;99.90;;;;;;5082905;28;20804;-52
2022/11/03 08:55:43;;;;;;;7.60;4.63;;;19.80;99.90;;;;;;5090916;28;21123;-50
2022/11/03 08:58:10;;;;;;;4.97;4.33;;;20.10;99.90;;;;;;5093048;28;20487;-50
2022/11/03 09:00:39;;;;;;;8.10;4.73;;;20.00;99.90;;;;;;5084405;28;20514;-54
2022/11/03 09:03:06;;;;;;;7.87;4.10;;;19.90;99.90;;;;;;5072229;28;20543;-57
2022/11/03 09:05:34;;;;;;;9.60;5.30;;;20.10;99.90;;;;;;5101227;28;20815;-57
2022/11/03 09:08:01;;;;;;;6.70;5.70;;;19.90;99.90;;;;;;5096432;28;20554;-55
2022/11/03 09:10:29;;;;;;;13.47;5.10;;;;;;;;;;5092409;28;20618;-56
2022/11/03 09:12:56;;;;;;;9.80;5.40;;;20.20;99.90;;;;;;5092111;28;20463;-59
2022/11/03 09:15:23;;;;;;;7.07;3.80;;;;;;;;;;5089126;28;20479;-57
2022/11/03 09:17:52;;;;;;;5.87;4.60;;;18.00;99.90;;;;;;5080669;28;20542;-55
2022/11/03 09:20:20;;;;;;;13.10;5.50;;;17.60;99.90;;;;;;5080279;28;20460;-57
2022/11/03 09:22:47;;;;;;;7.57;4.67;;;17.30;99.90;;;;;;5088465;28;20462;-56
2022/11/03 09:25:14;;;;;;;6.90;4.27;;;16.70;99.90;;;;;;5088907;28;20838;-54
2022/11/03 09:27:42;;;;;;;6.27;3.47;;;16.80;99.90;;;;;;5089763;28;20482;-55
2022/11/03 09:30:10;;;;;;;6.03;3.70;;;16.70;99.90;;;;;;5089472;28;20463;-53
2022/11/03 09:32:37;;;;;;;4.70;3.40;;;15.70;99.90;;;;;;5103869;28;20460;-55
2022/11/03 09:35:08;;;;;;;8.80;3.83;;;15.20;99.90;;;;;;5092960;28;20868;-53
2022/11/03 09:37:36;;;;;;;8.37;3.67;;;14.80;99.90;;;;;;5101872;28;20431;-58
2022/11/03 09:40:04;;;;;;;6.57;3.10;;;15.80;99.90;;;;;;5099859;28;20466;-53
2022/11/03 09:42:33;;;;;;;11.33;3.60;;;15.60;99.90;;;;;;5085418;28;20484;-52
2022/11/03 09:45:02;;;;;;;3.47;3.17;;;15.50;99.90;;;;;;5094202;28;20497;-59
2022/11/03 09:47:33;;;;;;;5.03;3.00;;;15.50;99.90;;;;;;5090716;28;20963;-57
2022/11/03 09:50:01;;;;;;;5.40;3.03;;;15.60;99.90;;;;;;5095313;28;20449;-57
2022/11/03 09:52:31;;;;;;;5.13;3.33;;;16.70;99.90;;;;;;5099783;28;20494;-51
2022/11/03 09:54:58;;;;;;;5.20;3.40;;;16.40;99.90;;;;;;5088310;28;20475;-54
2022/11/03 09:57:27;;;;;;;4.57;4.10;;;14.50;99.90;;;;;;5090534;28;20455;-56
2022/11/03 09:59:55;;;;;;;7.20;3.10;;;14.40;99.90;;;;;;5091606;28;20451;-54
2022/11/03 10:02:25;;;;;;;5.33;3.00;;;15.10;99.90;;;;;;5093262;28;20475;-54
2022/11/03 10:04:55;;;;;;;3.73;3.33;;;15.90;99.90;;;;;;5091602;28;20980;-50
2022/11/03 10:07:24;;;;;;;6.40;3.87;;;15.10;99.90;;;;;;5092888;28;20472;-53
2022/11/03 10:09:54;;;;;;;5.83;3.70;;;15.30;99.90;;;;;;5087744;28;20450;-51
2022/11/03 10:12:23;;;;;;;6.10;3.10;;;15.80;99.90;;;;;;5090867;28;20467;-49
2022/11/03 10:14:51;;;;;;;6.17;3.20;;;15.70;99.90;;;;;;5097690;28;20465;-53
2022/11/03 10:17:20;;;;;;;5.63;3.70;;;16.00;99.90;;;;;;5090626;28;20528;-52
2022/11/03 10:19:50;;;;;;;6.53;3.97;;;15.60;99.90;;;;;;5091436;28;20451;-54
2022/11/03 10:22:19;;;;;;;5.30;3.63;;;14.80;99.90;;;;;;5093382;28;20537;-54
2022/11/03 10:24:46;;;;;;;10.10;3.43;;;14.70;99.90;;;;;;5084333;28;20989;-54
2022/11/03 10:27:33;;;;;;;5.83;3.07;;;15.40;99.90;;;;;;5093682;28;20510;-55
2022/11/03 10:30:08;;;;;;;4.33;2.90;;;15.60;99.90;;;;;;5098780;28;20538;-55
2022/11/03 10:32:36;;;;;;;5.03;3.30;;;15.70;99.90;;;;;;5094117;28;20537;-54
2022/11/03 10:35:24;;;;;;;3.60;3.10;;;15.10;99.90;;;;;;5084276;28;20552;-54
2022/11/03 10:37:51;;;;;;;6.23;3.67;;;16.00;99.90;;;;;;5084771;28;20794;-50
2022/11/03 10:40:36;;;;;;;8.23;4.23;;;16.10;99.90;;;;;;5086871;28;20832;-54
2022/11/03 10:43:05;;;;;;;5.60;3.27;;;17.20;99.90;;;;;;5087383;28;20941;-54
2022/11/03 10:45:32;;;;;;;3.93;3.10;;;16.20;99.90;;;;;;5088766;28;20499;-52
2022/11/03 10:48:01;;;;;;;6.63;3.77;;;15.10;99.90;;;;;;5091505;28;21065;-56
2022/11/03 10:50:28;;;;;;;7.20;3.50;;;15.10;99.90;;;;;;5092288;28;21750;-55
2022/11/03 10:52:56;;;;;;;3.80;3.03;;;14.50;99.90;;;;;;5090069;28;20461;-60
2022/11/03 10:55:24;;;;;;;3.93;3.23;;;14.10;99.90;;;;;;5092299;28;20463;-60
2022/11/03 10:57:54;;;;;;;9.73;3.20;;;14.50;99.90;;;;;;5093770;28;20451;-56
2022/11/03 11:00:23;;;;;;;5.60;3.30;;;16.00;99.90;;;;;;5094536;28;20465;-58
2022/11/03 11:02:55;;;;;;;4.53;3.50;;;15.60;99.90;;;;;;5105014;28;20533;-56
2022/11/03 11:05:24;;;;;;;4.80;3.60;;;15.30;99.90;;;;;;5095922;28;20479;-58
2022/11/03 11:07:52;;;;;;;4.23;3.40;;;15.50;99.90;;;;;;5093836;28;20893;-67
2022/11/03 11:10:23;;;;;;;4.30;3.03;;;15.80;99.90;;;;;;5092792;28;20458;-58
2022/11/03 11:13:23;;;;;;;6.10;3.30;;;15.30;99.90;;;;;;5095497;28;20447;-63
2022/11/03 11:15:53;;;;;;;6.43;3.00;;;17.50;99.90;;;;;;5087497;28;20475;-60
2022/11/03 11:19:01;;;;;;;6.93;3.50;;;17.40;99.90;;;;;;5080246;28;20457;-58
2022/11/03 11:22:00;;;;;;;7.80;3.53;;;16.70;99.90;;;;;;5093894;28;20456;-55
2022/11/03 11:24:57;;;;;;;8.83;3.60;;;15.90;99.90;;;;;;5075379;28;20547;-61
2022/11/03 11:28:05;;;;;;;7.60;3.67;;;16.40;99.90;;;;;;5080881;28;20479;-55
2022/11/03 11:31:25;;;;;;;5.30;4.60;;;17.00;99.90;;;;;;5092939;28;20910;-62
2022/11/03 11:34:31;;;;;;;13.13;4.63;;;16.70;99.90;;;;;;5093667;28;20991;-52
2022/11/03 11:37:41;;;;;;;5.50;3.70;;;17.10;99.90;;;;;;5089234;28;20465;-57
2022/11/03 11:40:13;;;;;;;5.97;3.57;;;17.60;99.90;;;;;;5078794;28;20449;-50
2022/11/03 11:43:13;;;;;;;7.43;3.73;;;17.80;99.90;;;;;;5115061;28;20761;-55
2022/11/03 11:46:17;;;;;;;7.20;4.00;;;17.10;99.90;;;;;;5096213;28;20569;-57
2022/11/03 11:48:45;;;;;;;4.97;3.40;;;16.50;99.90;;;;;;5064098;28;20485;-59
2022/11/03 11:51:13;;;;;;;4.70;3.60;;;16.50;99.90;;;;;;5094247;28;20519;-69
2022/11/03 11:53:42;;;;;;;6.07;3.60;;;15.50;99.90;;;;;;5094362;28;20449;-68
2022/11/03 11:56:12;;;;;;;4.80;3.40;;;15.50;99.90;;;;;;5073898;28;20984;-56
2022/11/03 11:58:42;;;;;;;11.00;4.30;;;15.90;99.90;;;;;;5088856;28;20487;-62
2022/11/03 12:01:22;;;;;;;5.20;3.70;;;15.30;99.90;;;;;;5092589;28;20463;-65
2022/11/03 12:03:57;;;;;;;6.40;3.40;;;15.10;99.90;;;;;;5093346;28;20451;-63
2022/11/03 12:06:34;;;;;;;8.63;4.00;;;15.20;99.90;;;;;;5092756;28;20582;-56
2022/11/03 12:09:05;;;;;;;5.13;3.53;;;15.80;99.90;;;;;;5092967;28;20816;-63
2022/11/03 12:11:43;;;;;;;6.93;3.40;;;15.80;99.90;;;;;;5078215;28;20465;-59
2022/11/03 12:14:33;;;;;;;4.30;3.03;;;15.40;99.90;;;;;;5113194;28;20951;-60
2022/11/03 12:17:33;;;;;;;4.23;3.20;;;15.20;99.90;;;;;;5093315;28;20460;-56
2022/11/03 12:20:21;;;;;;;5.40;3.27;;;16.00;99.90;;;;;;5093761;28;20438;-61
2022/11/03 12:22:48;;;;;;;3.90;2.53;;;16.00;99.90;;;;;;5093218;28;20965;-64
2022/11/03 12:25:36;;;;;;;8.33;3.80;;;16.00;99.90;;;;;;5092434;28;20558;-58
2022/11/03 12:28:03;;;;;;;3.77;2.90;;;15.80;99.90;;;;;;5092931;28;20540;-57
2022/11/03 12:30:31;;;;;;;3.43;3.13;;;16.60;99.90;;;;;;5093880;28;20495;-56
2022/11/03 12:32:59;;;;;;;9.53;3.50;;;16.40;99.90;;;;;;5094179;28;20479;-54
2022/11/03 12:35:27;;;;;;;4.67;2.93;;;16.30;99.90;;;;;;5093076;28;20482;-62
2022/11/03 12:37:54;;;;;;;5.83;2.83;;;16.80;99.90;;;;;;5083188;28;20963;-61
2022/11/03 12:40:21;;;;;;;7.27;3.87;;;17.00;99.90;;;;;;5093675;28;20534;-64
2022/11/03 12:42:49;;;;;;;4.27;3.17;;;17.40;99.90;;;;;;5092528;28;20443;-58
2022/11/03 12:45:16;;;;;;;5.20;3.13;;;17.00;99.90;;;;;;5093723;28;20509;-63
2022/11/03 12:47:43;;;;;;;4.73;3.23;;;16.50;99.90;;;;;;5093804;28;20558;-61
2022/11/03 12:50:11;;;;;;;5.73;3.37;;;16.80;99.90;;;;;;5093929;28;20469;-61
2022/11/03 12:52:39;;;;;;;3.77;3.10;;;17.60;99.90;;;;;;5093885;28;20532;-62
2022/11/03 12:55:07;;;;;;;11.00;3.93;;;17.00;99.90;;;;;;5093476;28;20981;-62
2022/11/03 12:57:34;;;;;;;6.93;3.77;;;17.10;99.90;;;;;;5093395;28;20491;-62
2022/11/03 13:00:01;;;;;;;6.63;4.10;;;16.70;99.90;;;;;;5093928;28;20534;-57
2022/11/03 13:02:30;;;;;;;5.90;3.63;;;15.70;99.90;;;;;;5093760;28;20450;-59
2022/11/03 13:04:57;;;;;;;6.10;4.10;;;;;;;;;;5093749;28;20507;-58
2022/11/03 13:07:24;;;;;;;6.27;4.23;;;15.00;99.90;;;;;;5093575;28;20501;-58
2022/11/03 13:09:53;;;;;;;5.73;4.20;;;15.00;99.90;;;;;;5093639;28;20485;-58
2022/11/03 13:12:33;;;;;;;4.20;3.43;;;14.80;99.90;;;;;;5093454;28;20443;-58
2022/11/03 13:15:05;;;;;;;6.40;3.93;;;14.70;99.90;;;;;;5093187;28;20563;-59
2022/11/03 13:17:32;;;;;;;7.97;4.53;;;14.70;99.90;;;;;;5093638;28;20512;-59
2022/11/03 13:20:00;;;;;;;6.10;4.43;;;14.70;99.90;;;;;;5093538;28;20970;-58
2022/11/03 13:22:27;;;;;;;6.50;4.37;;;14.70;99.90;;;;;;5093004;28;20455;-58
2022/11/03 13:24:56;;;;;;;4.83;3.90;;;14.60;99.90;;;;;;5092578;28;20981;-58